Time;durP1;ratioP1;P1;durP2;ratioP2;P2;SDS_P1;SDS_P2;PMS_P1;PMS_P2;Temp;Humidity;BMP_temperature;BMP_pressure;BME280_temperature;BME280_humidity;BME280_pressure;Samples;Min_cycle;Max_cycle;Signal;HPM_P1;HPM_P2
2023/01/16 00:01:22;;;;;;;3.35;1.05;;;10.00;99.90;;;;;;5094469;28;20024;-35
2023/01/16 00:03:48;;;;;;;2.25;1.00;;;9.70;99.90;;;;;;5093803;28;20062;-35
2023/01/16 00:06:14;;;;;;;2.50;0.90;;;9.50;99.90;;;;;;5094214;28;20370;-35
2023/01/16 00:08:41;;;;;;;4.25;1.20;;;9.30;99.90;;;;;;5093859;28;20586;-34
2023/01/16 00:11:07;;;;;;;5.03;1.30;;;9.10;99.90;;;;;;5094451;28;20470;-35
2023/01/16 00:13:32;;;;;;;2.63;0.90;;;8.90;99.90;;;;;;5093980;28;20035;-35
2023/01/16 00:15:58;;;;;;;2.22;0.73;;;8.70;99.90;;;;;;5093725;28;20027;-34
2023/01/16 00:18:24;;;;;;;3.70;1.20;;;8.60;99.90;;;;;;5093692;28;20081;-35
2023/01/16 00:20:49;;;;;;;4.43;1.17;;;8.50;99.90;;;;;;5094079;28;20032;-35
2023/01/16 00:23:15;;;;;;;4.07;1.10;;;9.00;99.90;;;;;;5095034;28;20099;-34
2023/01/16 00:25:42;;;;;;;3.47;1.20;;;9.90;99.90;;;;;;5093680;28;20028;-35
2023/01/16 00:28:08;;;;;;;4.95;1.20;;;9.90;99.90;;;;;;5094035;28;20024;-36
2023/01/16 00:30:34;;;;;;;7.25;1.48;;;9.50;99.90;;;;;;5093622;28;20028;-35
2023/01/16 00:33:01;;;;;;;8.50;1.30;;;9.30;99.90;;;;;;5093958;28;20051;-35
2023/01/16 00:35:27;;;;;;;3.10;1.00;;;9.10;99.90;;;;;;5093490;28;20020;-33
2023/01/16 00:37:52;;;;;;;3.80;1.02;;;8.90;99.90;;;;;;5093637;28;20026;-34
2023/01/16 00:40:18;;;;;;;5.03;1.38;;;8.80;99.90;;;;;;5094163;28;20016;-34
2023/01/16 00:42:44;;;;;;;3.58;1.20;;;8.60;99.90;;;;;;5093294;28;20032;-33
2023/01/16 00:45:10;;;;;;;3.17;1.00;;;8.50;99.90;;;;;;5093338;28;20610;-34
2023/01/16 00:47:35;;;;;;;3.08;1.10;;;8.50;99.90;;;;;;5093027;28;20031;-35
2023/01/16 00:50:01;;;;;;;3.80;1.10;;;9.30;99.90;;;;;;5093931;28;20069;-35
2023/01/16 00:52:27;;;;;;;3.67;0.73;;;10.00;99.90;;;;;;5095122;28;20509;-35
2023/01/16 00:54:52;;;;;;;2.38;0.90;;;9.80;99.90;;;;;;5093966;28;20024;-34
2023/01/16 00:57:18;;;;;;;3.35;0.90;;;9.50;99.90;;;;;;5092718;28;20043;-34
2023/01/16 00:59:43;;;;;;;2.65;0.90;;;9.30;99.90;;;;;;5093656;28;20027;-34
2023/01/16 01:02:09;;;;;;;4.82;1.30;;;9.10;99.90;;;;;;5094855;28;20067;-34
2023/01/16 01:04:35;;;;;;;4.63;1.23;;;9.00;99.90;;;;;;5093923;28;20021;-34
2023/01/16 01:07:00;;;;;;;4.30;1.02;;;8.80;99.90;;;;;;5092737;28;20401;-35
2023/01/16 01:09:26;;;;;;;3.00;1.02;;;8.70;99.90;;;;;;5093273;28;20031;-33
2023/01/16 01:11:52;;;;;;;4.82;0.80;;;8.60;99.90;;;;;;5092870;28;20028;-34
2023/01/16 01:14:17;;;;;;;2.70;0.85;;;8.60;99.90;;;;;;5093334;28;20024;-34
2023/01/16 01:16:43;;;;;;;5.30;1.10;;;9.60;99.90;;;;;;5093362;28;20390;-35
2023/01/16 01:19:08;;;;;;;3.10;1.00;;;10.00;99.90;;;;;;5092166;28;20028;-34
2023/01/16 01:21:34;;;;;;;2.60;0.80;;;9.70;99.90;;;;;;5092830;28;20035;-35
2023/01/16 01:24:00;;;;;;;5.10;1.52;;;9.40;99.90;;;;;;5093105;28;20418;-35
2023/01/16 01:26:25;;;;;;;2.10;0.90;;;9.20;99.90;;;;;;5093286;28;20035;-35
2023/01/16 01:28:51;;;;;;;7.72;1.40;;;9.00;99.90;;;;;;5092973;28;20074;-34
2023/01/16 01:31:16;;;;;;;5.07;1.15;;;8.80;99.90;;;;;;5092598;28;20036;-35
2023/01/16 01:33:42;;;;;;;3.88;1.00;;;8.70;99.90;;;;;;5092616;28;20340;-35
2023/01/16 01:36:08;;;;;;;3.55;0.90;;;8.50;99.90;;;;;;5092254;28;20024;-35
2023/01/16 01:38:35;;;;;;;4.70;1.10;;;8.40;99.90;;;;;;5092334;28;20031;-34
2023/01/16 01:41:00;;;;;;;3.67;1.00;;;8.80;99.90;;;;;;5092196;28;20572;-35
2023/01/16 01:43:39;;;;;;;3.13;0.90;;;9.80;99.90;;;;;;5092216;28;20115;-34
2023/01/16 01:46:05;;;;;;;4.32;1.10;;;9.90;99.90;;;;;;5092484;28;20382;-35
2023/01/16 01:48:40;;;;;;;5.35;1.10;;;9.60;99.90;;;;;;5093260;28;20022;-35
2023/01/16 01:51:10;;;;;;;3.05;1.10;;;9.30;99.90;;;;;;5092821;28;20035;-34
2023/01/16 01:53:48;;;;;;;5.50;1.02;;;9.10;99.90;;;;;;5091983;28;20504;-35
2023/01/16 01:56:20;;;;;;;1.70;0.75;;;8.80;99.90;;;;;;5091857;28;20031;-34
2023/01/16 01:58:49;;;;;;;3.85;1.10;;;8.70;99.90;;;;;;5091943;28;20528;-33
2023/01/16 02:01:15;;;;;;;2.80;0.85;;;8.50;99.90;;;;;;5092777;28;20386;-35
2023/01/16 02:03:48;;;;;;;2.95;1.08;;;8.40;99.90;;;;;;5091537;28;20020;-35
2023/01/16 02:06:21;;;;;;;1.27;0.60;;;8.50;99.90;;;;;;5091715;28;20028;-36
2023/01/16 02:08:50;;;;;;;3.40;1.00;;;9.60;99.90;;;;;;5091859;28;20035;-34
2023/01/16 02:11:26;;;;;;;3.33;1.02;;;9.80;99.90;;;;;;5092050;28;20067;-35
2023/01/16 02:14:11;;;;;;;2.45;0.90;;;9.50;99.90;;;;;;5092122;28;20023;-34
2023/01/16 02:19:43;;;;;;;2.80;1.08;;;8.90;99.90;;;;;;5091962;28;20087;-35
2023/01/16 02:22:42;;;;;;;3.30;0.90;;;8.70;99.90;;;;;;5091528;28;20055;-35
2023/01/16 02:25:44;;;;;;;3.83;0.98;;;8.50;99.90;;;;;;5091699;28;20031;-35
2023/01/16 02:28:31;;;;;;;3.53;0.88;;;8.40;99.90;;;;;;5091333;28;20024;-34
2023/01/16 02:31:15;;;;;;;3.42;0.90;;;8.20;99.90;;;;;;5091031;28;20047;-34
2023/01/16 02:33:55;;;;;;;2.05;0.70;;;9.10;99.90;;;;;;5091661;28;20043;-35
2023/01/16 02:36:35;;;;;;;2.22;0.70;;;9.70;99.90;;;;;;5092343;28;20063;-35
2023/01/16 02:39:24;;;;;;;2.78;0.95;;;9.50;99.90;;;;;;5091479;28;20506;-35
2023/01/16 02:41:51;;;;;;;3.85;0.95;;;9.20;99.90;;;;;;5092101;28;20044;-35
2023/01/16 02:44:26;;;;;;;3.25;0.90;;;8.90;99.90;;;;;;5092037;28;20436;-35
2023/01/16 02:47:06;;;;;;;4.15;1.00;;;8.80;99.90;;;;;;5091096;28;20107;-36
2023/01/16 02:49:40;;;;;;;3.00;1.00;;;8.60;99.90;;;;;;5091747;28;20020;-34
2023/01/16 02:52:37;;;;;;;1.10;0.68;;;8.50;99.90;;;;;;5090911;28;20031;-35
2023/01/16 02:55:31;;;;;;;2.95;0.75;;;8.40;99.90;;;;;;5091507;28;20028;-34
2023/01/16 02:58:01;;;;;;;1.67;0.55;;;8.70;99.90;;;;;;5092224;28;20076;-35
2023/01/16 03:00:28;;;;;;;3.75;1.15;;;9.80;99.90;;;;;;5091682;28;20040;-34
2023/01/16 03:02:55;;;;;;;5.65;0.93;;;9.70;99.90;;;;;;5091131;28;20103;-34
2023/01/16 03:05:21;;;;;;;4.13;0.90;;;10.10;99.90;;;;;;5091148;28;20024;-34
2023/01/16 03:08:19;;;;;;;3.88;0.80;;;11.00;99.90;;;;;;5090773;28;20024;-35
2023/01/16 03:11:06;;;;;;;3.00;0.98;;;11.40;99.90;;;;;;5089311;28;20043;-35
2023/01/16 03:13:58;;;;;;;3.80;0.88;;;10.90;99.90;;;;;;5087206;28;20592;-34
2023/01/16 03:16:53;;;;;;;3.92;0.90;;;10.30;99.90;;;;;;5091438;28;20020;-35
2023/01/16 03:19:53;;;;;;;2.55;0.93;;;9.90;99.90;;;;;;5080588;28;20440;-34
2023/01/16 03:22:39;;;;;;;2.92;0.88;;;9.60;99.90;;;;;;5088416;28;20551;-34
2023/01/16 03:25:19;;;;;;;3.53;0.85;;;9.30;99.90;;;;;;5092597;28;20035;-35
2023/01/16 03:28:00;;;;;;;5.00;1.17;;;9.10;99.90;;;;;;5091119;28;20504;-34
2023/01/16 03:30:34;;;;;;;2.80;1.10;;;8.90;99.90;;;;;;5091061;28;20032;-35
2023/01/16 03:33:21;;;;;;;1.98;0.73;;;8.70;99.90;;;;;;5090971;28;20030;-33
2023/01/16 03:35:54;;;;;;;2.40;1.05;;;8.50;99.90;;;;;;5091010;28;20016;-35
2023/01/16 03:38:21;;;;;;;2.75;0.90;;;8.40;99.90;;;;;;5092018;28;20021;-34
2023/01/16 03:40:48;;;;;;;3.20;1.02;;;8.30;99.90;;;;;;5090818;28;20020;-33
2023/01/16 03:43:19;;;;;;;2.53;0.73;;;8.30;99.90;;;;;;5092945;28;20028;-33
2023/01/16 03:45:57;;;;;;;3.50;0.90;;;8.20;99.90;;;;;;5094472;28;20070;-34
2023/01/16 03:48:37;;;;;;;3.10;0.95;;;8.10;99.90;;;;;;5094481;28;20023;-35
2023/01/16 03:51:06;;;;;;;2.78;0.80;;;8.10;99.90;;;;;;5094532;28;20028;-33
2023/01/16 03:53:38;;;;;;;2.65;0.98;;;8.10;99.90;;;;;;5094381;28;20103;-35
2023/01/16 03:56:45;;;;;;;4.35;1.10;;;8.00;99.90;;;;;;5094171;28;20024;-34
2023/01/16 03:59:11;;;;;;;4.90;0.90;;;7.90;99.90;;;;;;5094392;28;20043;-33
2023/01/16 04:01:43;;;;;;;3.17;0.80;;;7.90;99.90;;;;;;5094201;28;20095;-34
2023/01/16 04:04:19;;;;;;;6.28;1.10;;;8.20;99.90;;;;;;5094902;28;20431;-34
2023/01/16 04:06:51;;;;;;;3.45;0.82;;;9.40;99.90;;;;;;5093896;28;20024;-35
2023/01/16 04:09:39;;;;;;;2.10;0.90;;;10.40;99.90;;;;;;5094350;28;20103;-34
2023/01/16 04:12:07;;;;;;;3.38;1.05;;;10.20;99.90;;;;;;5084657;28;20498;-33
2023/01/16 04:14:35;;;;;;;1.95;0.98;;;9.80;99.90;;;;;;5093554;28;20126;-34
2023/01/16 04:17:02;;;;;;;3.72;0.90;;;9.50;99.90;;;;;;5094019;28;20106;-34
2023/01/16 04:19:30;;;;;;;3.47;0.90;;;9.30;99.90;;;;;;5094034;28;20108;-35
2023/01/16 04:21:56;;;;;;;2.20;0.73;;;9.00;99.90;;;;;;5093825;28;20035;-35
2023/01/16 04:24:21;;;;;;;1.52;0.65;;;8.90;99.90;;;;;;5093813;28;20393;-35
2023/01/16 04:26:47;;;;;;;4.25;0.77;;;8.70;99.90;;;;;;5093606;28;20388;-34
2023/01/16 04:29:13;;;;;;;4.20;1.00;;;8.60;99.90;;;;;;5095469;28;20074;-34
2023/01/16 04:31:38;;;;;;;1.95;0.80;;;8.40;99.90;;;;;;5094608;28;20390;-35
2023/01/16 04:34:04;;;;;;;3.47;0.80;;;8.30;99.90;;;;;;5097121;28;20478;-35
2023/01/16 04:36:31;;;;;;;2.65;0.85;;;8.30;99.90;;;;;;5094540;28;20024;-35
2023/01/16 04:38:56;;;;;;;3.53;0.80;;;8.20;99.90;;;;;;5093891;28;20418;-35
2023/01/16 04:41:37;;;;;;;2.60;0.80;;;8.10;99.90;;;;;;5093448;28;20076;-35
2023/01/16 04:44:05;;;;;;;2.20;0.80;;;8.10;99.90;;;;;;5093515;28;20024;-35
2023/01/16 04:46:31;;;;;;;2.67;0.60;;;8.00;99.90;;;;;;5093294;28;20027;-34
2023/01/16 04:48:56;;;;;;;2.20;0.85;;;7.90;99.90;;;;;;5093390;28;20036;-34
2023/01/16 04:51:22;;;;;;;6.00;1.08;;;7.90;99.90;;;;;;5093346;28;20027;-34
2023/01/16 04:53:48;;;;;;;4.28;0.93;;;7.90;99.90;;;;;;5092754;28;20039;-34
2023/01/16 04:56:13;;;;;;;2.40;0.70;;;7.90;99.90;;;;;;5092391;28;20371;-34
2023/01/16 04:58:39;;;;;;;1.88;0.70;;;7.80;99.90;;;;;;5093043;28;20040;-34
2023/01/16 05:01:05;;;;;;;3.42;1.02;;;7.80;99.90;;;;;;5093133;28;20489;-35
2023/01/16 05:03:30;;;;;;;5.35;0.98;;;7.90;99.90;;;;;;5093165;28;20039;-33
2023/01/16 05:05:56;;;;;;;1.98;0.63;;;8.90;99.90;;;;;;5092835;28;20109;-35
2023/01/16 05:08:25;;;;;;;3.15;0.98;;;9.90;99.90;;;;;;5092974;28;20486;-35
2023/01/16 05:10:51;;;;;;;4.20;0.73;;;10.90;99.90;;;;;;5093327;28;20434;-34
2023/01/16 05:13:17;;;;;;;1.92;0.70;;;11.60;99.90;;;;;;5092933;28;20107;-35
2023/01/16 05:15:44;;;;;;;2.05;0.70;;;11.70;99.90;;;;;;5092704;28;20474;-36
2023/01/16 05:18:11;;;;;;;2.65;0.73;;;11.00;99.90;;;;;;5092647;28;20485;-35
2023/01/16 05:20:37;;;;;;;1.33;0.73;;;10.50;99.90;;;;;;5092739;28;20025;-35
2023/01/16 05:23:03;;;;;;;2.35;0.75;;;10.10;99.90;;;;;;5092585;28;20031;-35
2023/01/16 05:25:29;;;;;;;2.03;1.00;;;9.70;99.90;;;;;;5092962;28;20020;-35
2023/01/16 05:27:55;;;;;;;5.50;0.98;;;9.40;99.90;;;;;;5094704;28;20020;-35
2023/01/16 05:30:21;;;;;;;3.10;1.00;;;9.10;99.90;;;;;;5091908;28;20370;-34
2023/01/16 05:32:47;;;;;;;3.13;0.93;;;8.90;99.90;;;;;;5092562;28;20053;-35
2023/01/16 05:35:13;;;;;;;3.20;1.30;;;8.70;99.90;;;;;;5092518;28;20031;-34
2023/01/16 05:37:39;;;;;;;2.50;0.90;;;8.50;99.90;;;;;;5092131;28;20052;-33
2023/01/16 05:40:05;;;;;;;2.85;0.90;;;8.40;99.90;;;;;;5092267;28;20116;-35
2023/01/16 05:42:31;;;;;;;2.15;0.95;;;8.30;99.90;;;;;;5092744;28;20024;-34
2023/01/16 05:44:56;;;;;;;3.33;1.23;;;8.10;99.90;;;;;;5092346;28;20020;-35
2023/01/16 05:47:22;;;;;;;2.67;0.90;;;8.10;99.90;;;;;;5092082;28;20495;-33
2023/01/16 05:49:48;;;;;;;2.58;1.08;;;8.00;99.90;;;;;;5092299;28;20147;-34
2023/01/16 05:52:14;;;;;;;3.60;0.80;;;7.90;99.90;;;;;;5092177;28;20024;-35
2023/01/16 05:54:39;;;;;;;2.03;1.00;;;7.80;99.90;;;;;;5092072;28;20085;-33
2023/01/16 05:57:05;;;;;;;3.45;1.30;;;7.80;99.90;;;;;;5091764;28;20134;-35
2023/01/16 05:59:31;;;;;;;3.03;1.35;;;7.80;99.90;;;;;;5091984;28;20040;-34
2023/01/16 06:01:57;;;;;;;2.70;0.90;;;7.70;99.90;;;;;;5092074;28;20028;-35
2023/01/16 06:04:23;;;;;;;1.38;0.75;;;8.10;99.90;;;;;;5093027;28;20050;-34
2023/01/16 06:06:49;;;;;;;3.42;1.10;;;9.30;99.90;;;;;;5092651;28;20016;-35
2023/01/16 06:09:15;;;;;;;2.90;0.90;;;10.30;99.90;;;;;;5093038;28;20028;-35
2023/01/16 06:11:41;;;;;;;1.40;0.70;;;11.20;99.90;;;;;;5092504;28;20047;-35
2023/01/16 06:14:06;;;;;;;3.45;0.95;;;11.70;99.90;;;;;;5092623;28;20025;-35
2023/01/16 06:16:32;;;;;;;3.28;0.95;;;11.20;99.90;;;;;;5091482;28;20074;-35
2023/01/16 06:18:58;;;;;;;1.45;0.75;;;10.60;99.90;;;;;;5091710;28;20024;-35
2023/01/16 06:21:23;;;;;;;3.50;1.00;;;10.20;99.90;;;;;;5092082;28;20035;-34
2023/01/16 06:23:49;;;;;;;2.38;1.08;;;9.80;99.90;;;;;;5093380;28;20052;-35
2023/01/16 06:26:15;;;;;;;3.42;1.30;;;9.50;99.90;;;;;;5091441;28;20020;-35
2023/01/16 06:28:40;;;;;;;3.42;1.10;;;9.20;99.90;;;;;;5092099;28;20031;-35
2023/01/16 06:31:07;;;;;;;4.00;1.13;;;9.00;99.90;;;;;;5091601;28;20071;-34
2023/01/16 06:33:33;;;;;;;1.60;0.98;;;8.70;99.90;;;;;;5092137;28;20039;-34
2023/01/16 06:35:59;;;;;;;3.90;1.10;;;8.50;99.90;;;;;;5091439;28;20024;-35
2023/01/16 06:38:25;;;;;;;2.58;0.80;;;8.40;99.90;;;;;;5092597;28;20032;-35
2023/01/16 06:40:55;;;;;;;2.88;1.70;;;8.20;99.90;;;;;;5091415;28;20028;-35
2023/01/16 06:43:22;;;;;;;5.82;1.13;;;8.10;99.90;;;;;;5092328;28;20435;-33
2023/01/16 06:45:48;;;;;;;2.53;1.00;;;8.00;99.90;;;;;;5091383;28;20024;-34
2023/01/16 06:48:14;;;;;;;4.53;1.83;;;7.90;99.90;;;;;;5092331;28;20460;-35
2023/01/16 06:50:39;;;;;;;3.45;1.63;;;7.80;99.90;;;;;;5091266;28;20027;-34
2023/01/16 06:53:05;;;;;;;4.35;1.50;;;7.80;99.90;;;;;;5091325;28;20028;-35
2023/01/16 06:55:30;;;;;;;4.68;1.10;;;7.70;99.90;;;;;;5091265;28;20028;-34
2023/01/16 06:57:56;;;;;;;2.05;1.02;;;7.70;99.90;;;;;;5090973;28;20115;-35
2023/01/16 07:00:22;;;;;;;4.32;1.13;;;7.70;99.90;;;;;;5091388;28;20024;-33
2023/01/16 07:02:56;;;;;;;2.38;1.30;;;7.70;99.90;;;;;;5091176;28;20061;-34
2023/01/16 07:05:26;;;;;;;2.35;1.00;;;8.40;99.90;;;;;;5091778;28;20123;-35
2023/01/16 07:07:51;;;;;;;3.40;1.20;;;9.60;99.90;;;;;;5092022;28;20051;-34
2023/01/16 07:10:20;;;;;;;2.83;1.20;;;10.70;99.90;;;;;;5091207;28;20490;-35
2023/01/16 07:12:46;;;;;;;3.90;1.10;;;11.40;99.90;;;;;;5091635;28;20020;-34
2023/01/16 07:23:33;;;;;;;3.85;1.10;;;10.00;99.90;;;;;;5095063;28;20115;-35
2023/01/16 07:26:01;;;;;;;2.45;1.02;;;9.60;99.90;;;;;;5094952;28;20106;-34
2023/01/16 07:28:28;;;;;;;3.20;1.40;;;9.30;99.90;;;;;;5094831;28;20032;-35
2023/01/16 07:30:55;;;;;;;2.38;1.20;;;9.10;99.90;;;;;;5094932;28;20020;-35
2023/01/16 07:33:21;;;;;;;4.03;1.00;;;8.80;99.90;;;;;;5094878;28;20028;-35
2023/01/16 07:35:49;;;;;;;4.10;1.20;;;8.60;99.90;;;;;;5094639;28;20024;-35
2023/01/16 07:38:15;;;;;;;4.20;1.00;;;8.40;99.90;;;;;;5094832;28;20393;-35
2023/01/16 07:40:41;;;;;;;3.30;1.45;;;8.30;99.90;;;;;;5094673;28;20016;-34
2023/01/16 07:43:07;;;;;;;2.75;1.10;;;8.20;99.90;;;;;;5095468;28;20469;-34
2023/01/16 07:45:32;;;;;;;2.50;1.20;;;8.10;99.90;;;;;;5094629;28;20439;-34
2023/01/16 07:48:00;;;;;;;7.10;1.30;;;8.00;99.90;;;;;;5094421;28;20438;-34
2023/01/16 07:50:29;;;;;;;2.60;1.10;;;7.90;99.90;;;;;;5094589;28;20048;-34
2023/01/16 07:52:54;;;;;;;2.63;1.20;;;7.90;99.90;;;;;;5094540;28;20099;-35
2023/01/16 07:55:20;;;;;;;4.13;1.38;;;7.80;99.90;;;;;;5095465;28;20165;-34
2023/01/16 07:57:46;;;;;;;2.80;1.00;;;7.80;99.90;;;;;;5094463;28;20032;-34
2023/01/16 08:00:12;;;;;;;3.25;1.40;;;7.70;99.90;;;;;;5094716;28;20024;-35
2023/01/16 08:02:39;;;;;;;3.22;1.40;;;7.50;99.90;;;;;;5094341;28;20560;-35
2023/01/16 08:05:05;;;;;;;6.45;1.30;;;7.40;99.90;;;;;;5094813;28;20024;-35
2023/01/16 08:07:30;;;;;;;2.58;1.10;;;7.40;99.90;;;;;;5094534;28;20091;-35
2023/01/16 08:09:56;;;;;;;1.40;1.00;;;7.30;99.90;;;;;;5094728;28;20438;-35
2023/01/16 08:12:22;;;;;;;3.58;1.30;;;7.40;99.90;;;;;;5094295;28;20030;-34
2023/01/16 08:14:47;;;;;;;2.88;1.40;;;7.30;99.90;;;;;;5094124;28;20440;-35
2023/01/16 08:17:13;;;;;;;2.90;1.50;;;7.30;99.90;;;;;;5093833;28;20394;-34
2023/01/16 08:19:39;;;;;;;5.35;1.50;;;7.30;99.90;;;;;;5094063;28;20028;-35
2023/01/16 08:22:04;;;;;;;2.55;1.27;;;7.30;99.90;;;;;;5094322;28;20035;-34
2023/01/16 08:24:30;;;;;;;2.53;1.20;;;7.30;99.90;;;;;;5093801;28;20028;-35
2023/01/16 08:26:56;;;;;;;2.90;1.00;;;7.30;99.90;;;;;;5093631;28;20016;-34
2023/01/16 08:29:23;;;;;;;4.45;1.33;;;7.30;99.90;;;;;;5094816;28;20063;-35
2023/01/16 08:31:51;;;;;;;1.63;1.15;;;7.30;99.90;;;;;;5094315;28;20111;-34
2023/01/16 08:34:17;;;;;;;3.40;0.90;;;7.30;99.90;;;;;;5093648;28;20027;-35
2023/01/16 08:36:43;;;;;;;5.30;1.30;;;7.30;99.90;;;;;;5093446;28;20497;-35
2023/01/16 08:39:12;;;;;;;2.30;1.02;;;7.30;99.90;;;;;;5093647;28;20038;-34
2023/01/16 08:52:43;;;;;;;2.95;1.50;;;7.30;99.90;;;;;;5093865;28;20032;-35
2023/01/16 08:55:09;;;;;;;3.13;1.42;;;7.30;99.90;;;;;;5093862;28;20031;-35
2023/01/16 08:57:35;;;;;;;3.97;1.20;;;7.30;99.90;;;;;;5095618;28;20490;-35
2023/01/16 09:00:01;;;;;;;3.63;1.38;;;7.30;99.90;;;;;;5093825;28;20028;-35
2023/01/16 09:02:28;;;;;;;1.83;1.05;;;7.30;99.90;;;;;;5094205;28;20478;-35
2023/01/16 09:04:55;;;;;;;3.80;1.30;;;7.30;99.90;;;;;;5093073;28;20074;-35
2023/01/16 09:07:21;;;;;;;3.47;1.15;;;7.30;99.90;;;;;;5094662;28;20065;-35
2023/01/16 09:09:47;;;;;;;3.20;1.20;;;7.30;99.90;;;;;;5092935;28;20519;-35
2023/01/16 09:14:58;;;;;;;2.38;1.15;;;7.30;99.90;;;;;;5093413;28;20042;-35
2023/01/16 09:17:25;;;;;;;1.80;1.15;;;7.30;99.90;;;;;;5092695;28;20425;-34
2023/01/16 09:19:52;;;;;;;2.88;1.40;;;7.30;99.90;;;;;;5093025;28;20032;-35
2023/01/16 09:22:18;;;;;;;2.53;1.20;;;7.30;99.90;;;;;;5092853;28;20036;-35
2023/01/16 09:24:44;;;;;;;3.17;1.30;;;7.30;99.90;;;;;;5092733;28;20107;-35
2023/01/16 09:27:12;;;;;;;2.47;1.15;;;7.30;99.90;;;;;;5092422;28;20028;-35
2023/01/16 09:29:38;;;;;;;3.25;1.25;;;7.30;99.90;;;;;;5092651;28;20535;-35
2023/01/16 09:32:08;;;;;;;2.33;1.02;;;7.30;99.90;;;;;;5092583;28;20036;-34
2023/01/16 09:34:38;;;;;;;2.10;1.30;;;7.30;99.90;;;;;;5093843;28;20027;-34
2023/01/16 09:37:05;;;;;;;2.55;1.33;;;7.20;99.90;;;;;;5092124;28;20028;-35
2023/01/16 09:39:32;;;;;;;4.20;1.20;;;7.20;99.90;;;;;;5093647;28;20083;-34
2023/01/16 09:44:50;;;;;;;2.50;1.20;;;7.30;99.90;;;;;;5094015;28;20547;-35
2023/01/16 09:47:19;;;;;;;3.15;1.42;;;7.30;99.90;;;;;;5090625;28;20024;-34
2023/01/16 09:49:49;;;;;;;2.17;1.20;;;7.30;99.90;;;;;;5092346;28;20270;-34
2023/01/16 09:58:35;;;;;;;2.17;1.10;;;7.20;99.90;;;;;;5092609;28;20039;-34
2023/01/16 10:01:01;;;;;;;;;;;7.20;99.90;;;;;;5092583;28;20062;-35
2023/01/16 10:03:27;;;;;;;1.88;1.17;;;7.20;99.90;;;;;;5092085;28;19983;-35
2023/01/16 10:06:12;;;;;;;4.28;1.25;;;7.20;99.90;;;;;;5091772;28;20450;-36
2023/01/16 10:08:57;;;;;;;;;;;7.20;99.90;;;;;;5092935;28;20107;-35
2023/01/16 10:11:53;;;;;;;3.28;1.20;;;7.20;99.90;;;;;;5091897;28;20423;-35
2023/01/16 10:14:34;;;;;;;2.45;1.17;;;7.20;99.90;;;;;;5083624;28;20036;-34
2023/01/16 10:17:19;;;;;;;2.40;1.10;;;7.20;99.90;;;;;;5092025;28;20024;-34
2023/01/16 10:19:45;;;;;;;2.42;0.90;;;7.20;99.90;;;;;;5091753;28;20053;-35
2023/01/16 10:22:22;;;;;;;2.88;1.40;;;7.20;99.90;;;;;;5091854;28;20043;-35
2023/01/16 10:25:06;;;;;;;2.22;1.30;;;7.20;99.90;;;;;;5091649;28;20034;-35
2023/01/16 10:27:54;;;;;;;1.45;0.90;;;7.20;99.90;;;;;;5091447;28;20035;-35
2023/01/16 10:30:32;;;;;;;2.25;1.20;;;7.30;99.90;;;;;;5091648;28;20448;-34
2023/01/16 10:33:23;;;;;;;2.65;1.00;;;7.20;99.90;;;;;;5091641;28;20457;-34
2023/01/16 10:35:51;;;;;;;2.58;1.38;;;7.20;99.90;;;;;;5091400;28;20081;-34
2023/01/16 10:38:37;;;;;;;2.42;1.00;;;7.20;99.90;;;;;;5091434;28;20032;-35
2023/01/16 10:49:25;;;;;;;1.50;1.00;;;7.20;99.90;;;;;;5092190;28;20028;-35
2023/01/16 10:49:27;;;;;;;4.43;1.30;;;7.20;99.90;;;;;;5092845;28;20046;-34
2023/01/16 10:51:54;;;;;;;1.50;0.98;;;7.20;99.90;;;;;;5092325;28;20031;-36
2023/01/16 10:54:21;;;;;;;1.95;1.10;;;7.20;99.90;;;;;;5093895;28;20482;-35
2023/01/16 10:56:46;;;;;;;2.08;0.93;;;7.20;99.90;;;;;;5096194;28;20448;-35
2023/01/16 10:59:14;;;;;;;1.25;1.08;;;7.20;99.90;;;;;;5096101;28;20077;-34
2023/01/16 11:01:42;;;;;;;2.03;1.05;;;7.20;99.90;;;;;;5095806;28;20509;-35
2023/01/16 11:04:11;;;;;;;1.65;1.00;;;7.20;99.90;;;;;;5095469;28;20032;-34
2023/01/16 11:06:40;;;;;;;1.73;1.00;;;7.20;99.90;;;;;;5095601;28;20039;-35
2023/01/16 11:09:13;;;;;;;1.50;1.00;;;7.20;99.90;;;;;;5095304;28;20023;-36
2023/01/16 11:20:33;;;;;;;2.72;0.70;;;7.20;99.90;;;;;;5095492;28;20038;-35
2023/01/16 11:23:22;;;;;;;1.65;0.80;;;7.20;99.90;;;;;;5095125;28;20517;-35
2023/01/16 11:25:50;;;;;;;1.42;0.90;;;7.10;99.90;;;;;;5087553;28;20472;-34
2023/01/16 11:28:27;;;;;;;1.38;0.65;;;7.00;99.90;;;;;;5094913;28;20012;-35
2023/01/16 11:30:59;;;;;;;2.90;0.77;;;7.00;99.90;;;;;;5095536;28;20103;-34
2023/01/16 11:33:36;;;;;;;1.77;0.90;;;7.00;99.90;;;;;;5095387;28;20221;-35
2023/01/16 11:36:03;;;;;;;7.95;0.90;;;7.00;99.90;;;;;;5096196;28;20103;-34
2023/01/16 11:38:33;;;;;;;1.95;0.80;;;7.00;99.90;;;;;;5094954;28;20035;-35
2023/01/16 11:41:03;;;;;;;2.10;0.68;;;7.00;99.90;;;;;;5095545;28;20731;-34
2023/01/16 11:46:22;;;;;;;1.15;0.68;;;7.00;99.90;;;;;;5094856;28;20031;-35
2023/01/16 11:48:54;;;;;;;1.73;0.80;;;7.10;99.90;;;;;;5093528;28;20401;-35
2023/01/16 11:51:24;;;;;;;1.30;0.68;;;7.00;99.90;;;;;;5094678;28;20029;-34
2023/01/16 11:53:51;;;;;;;1.58;0.75;;;7.10;99.90;;;;;;5094782;28;20032;-35
2023/01/16 11:56:23;;;;;;;3.10;0.98;;;7.10;99.90;;;;;;5094777;28;20095;-35
2023/01/16 11:59:15;;;;;;;0.40;0.40;;;7.10;99.90;;;;;;5094397;28;20537;-34
2023/01/16 12:02:18;;;;;;;1.90;0.80;;;7.10;99.90;;;;;;5094389;28;20529;-35
2023/01/16 12:08:20;;;;;;;2.65;1.15;;;7.10;99.90;;;;;;5095487;28;20105;-35
2023/01/16 12:11:26;;;;;;;1.42;0.95;;;7.10;99.90;;;;;;5095608;28;20149;-35
2023/01/16 12:14:21;;;;;;;1.92;0.90;;;7.10;99.90;;;;;;5082964;28;20040;-35
2023/01/16 12:17:11;;;;;;;2.58;0.93;;;7.20;99.90;;;;;;5094311;28;20024;-35
2023/01/16 12:19:42;;;;;;;4.13;1.00;;;7.20;99.90;;;;;;5094555;28;20035;-34
2023/01/16 12:22:46;;;;;;;1.20;0.80;;;7.20;99.90;;;;;;5094322;28;20500;-35
2023/01/16 12:25:24;;;;;;;1.33;0.77;;;7.20;99.90;;;;;;5095013;28;20028;-35
2023/01/16 12:28:00;;;;;;;2.65;1.05;;;7.20;99.90;;;;;;5094011;28;20261;-34
2023/01/16 12:30:50;;;;;;;1.77;0.98;;;7.20;99.90;;;;;;5094341;28;20028;-35
2023/01/16 12:33:44;;;;;;;2.53;0.80;;;7.20;99.90;;;;;;5094603;28;20024;-35
2023/01/16 12:36:14;;;;;;;2.42;1.00;;;7.20;99.90;;;;;;5085152;28;20036;-34
2023/01/16 12:38:49;;;;;;;1.75;1.13;;;7.20;99.90;;;;;;5093653;28;20024;-35
2023/01/16 12:44:32;;;;;;;4.28;1.15;;;7.20;99.90;;;;;;5078270;28;20028;-35
2023/01/16 12:47:39;;;;;;;3.05;1.20;;;7.30;99.90;;;;;;5093611;28;20059;-35
2023/01/16 12:50:26;;;;;;;2.95;1.00;;;7.30;99.90;;;;;;5092813;28;20027;-34
2023/01/16 12:53:18;;;;;;;1.10;0.85;;;7.30;99.90;;;;;;5093567;28;20028;-34
2023/01/16 12:56:03;;;;;;;1.63;0.88;;;7.30;99.90;;;;;;5094175;28;20099;-35
2023/01/16 12:58:38;;;;;;;1.77;0.95;;;7.30;99.90;;;;;;5094768;28;20277;-34
2023/01/16 13:01:16;;;;;;;1.92;0.90;;;7.30;99.90;;;;;;5093933;28;20065;-35
2023/01/16 13:03:46;;;;;;;1.52;0.70;;;7.30;99.90;;;;;;5093935;28;20024;-35
2023/01/16 13:06:17;;;;;;;1.38;0.90;;;7.30;99.90;;;;;;5093363;28;20099;-34
2023/01/16 13:08:58;;;;;;;1.58;0.68;;;7.30;99.90;;;;;;5093334;28;20154;-34
2023/01/16 13:14:15;;;;;;;1.80;0.70;;;7.30;99.90;;;;;;5093351;28;20039;-35
2023/01/16 13:16:59;;;;;;;1.00;0.82;;;7.30;99.90;;;;;;5092486;28;20047;-34
2023/01/16 13:19:29;;;;;;;2.28;1.10;;;7.30;99.90;;;;;;5092846;28;20481;-34
2023/01/16 13:21:57;;;;;;;1.40;0.80;;;7.30;99.90;;;;;;5092681;28;20039;-35
2023/01/16 13:24:29;;;;;;;0.98;0.70;;;7.30;99.90;;;;;;5092800;28;20020;-34
2023/01/16 13:27:03;;;;;;;2.65;0.90;;;7.30;99.90;;;;;;5092530;28;20040;-35
2023/01/16 13:29:36;;;;;;;1.75;1.10;;;7.40;99.90;;;;;;5093165;28;20114;-34
2023/01/16 13:32:06;;;;;;;1.23;0.80;;;7.40;99.90;;;;;;5093575;28;20020;-35
2023/01/16 13:34:48;;;;;;;4.60;1.17;;;7.40;99.90;;;;;;5092726;28;20032;-35
2023/01/16 13:37:36;;;;;;;2.85;0.70;;;7.40;99.90;;;;;;5092307;28;20028;-35
2023/01/16 13:40:20;;;;;;;1.38;0.93;;;7.40;99.90;;;;;;5093809;28;20378;-34
2023/01/16 13:45:47;;;;;;;1.02;0.80;;;7.40;99.90;;;;;;5092238;28;20035;-35
2023/01/16 13:45:52;;;;;;;4.40;1.00;;;7.40;99.90;;;;;;5092565;28;20039;-34
2023/01/16 13:48:21;;;;;;;1.42;0.80;;;7.40;99.90;;;;;;5092253;28;20020;-34
2023/01/16 13:50:59;;;;;;;2.95;1.00;;;7.50;99.90;;;;;;5092277;28;20032;-34
2023/01/16 13:53:26;;;;;;;3.33;1.08;;;7.40;99.90;;;;;;5092822;28;20047;-35
2023/01/16 13:56:20;;;;;;;2.00;0.90;;;7.50;99.90;;;;;;5092594;28;20016;-34
2023/01/16 13:59:11;;;;;;;1.60;0.85;;;7.50;99.90;;;;;;5091752;28;20047;-35
2023/01/16 14:01:39;;;;;;;1.80;0.85;;;7.50;99.90;;;;;;5091940;28;20427;-34
2023/01/16 14:04:27;;;;;;;2.38;0.63;;;7.50;99.90;;;;;;5093117;28;20067;-34
2023/01/16 14:10:03;;;;;;;1.83;0.80;;;7.50;99.90;;;;;;5092132;28;20598;-34
2023/01/16 14:12:33;;;;;;;3.10;0.70;;;7.50;99.90;;;;;;5091904;28;20371;-35
2023/01/16 14:18:18;;;;;;;1.20;0.77;;;7.50;99.90;;;;;;5093353;28;20097;-34
2023/01/16 14:20:47;;;;;;;1.35;0.88;;;7.50;99.90;;;;;;5092810;28;20035;-34
2023/01/16 14:26:37;;;;;;;0.70;0.70;;;7.50;99.90;;;;;;5091232;28;20062;-35
2023/01/16 14:29:11;;;;;;;0.73;0.50;;;7.50;99.90;;;;;;5091775;28;20020;-35
2023/01/16 14:31:44;;;;;;;0.60;0.47;;;7.50;99.90;;;;;;5091677;28;20024;-35